createdAt,value
2024-04-24T00:00:08.747Z,52.33
2024-04-24T00:02:35.415Z,52.41
2024-04-24T00:05:05.536Z,51.99
2024-04-24T00:07:32.671Z,52.25
2024-04-24T00:09:59.620Z,52.37
2024-04-24T00:12:26.273Z,51.96
2024-04-24T00:14:52.997Z,52.40
2024-04-24T00:17:19.749Z,52.31
2024-04-24T00:19:46.531Z,52.23
2024-04-24T00:22:13.222Z,52.10
2024-04-24T00:24:39.965Z,52.04
2024-04-24T00:27:06.670Z,52.03
2024-04-24T00:29:33.360Z,52.34
2024-04-24T00:32:06.842Z,52.05
2024-04-24T00:34:34.323Z,52.03
2024-04-24T00:37:01.097Z,52.13
2024-04-24T00:39:27.854Z,51.93
2024-04-24T00:41:54.661Z,52.15
2024-04-24T00:44:21.434Z,51.94
2024-04-24T00:46:48.314Z,51.87
2024-04-24T00:49:15.259Z,52.00
2024-04-24T00:51:42.683Z,51.96
2024-04-24T00:54:09.699Z,51.83
2024-04-24T00:56:36.700Z,51.78
2024-04-24T00:59:03.485Z,51.95
2024-04-24T01:01:30.303Z,51.79
2024-04-24T01:03:57.060Z,51.72
2024-04-24T01:06:23.808Z,51.77
2024-04-24T01:08:50.542Z,51.77
2024-04-24T01:11:17.437Z,51.54
2024-04-24T01:13:44.294Z,51.62
2024-04-24T01:16:14.535Z,51.29
2024-04-24T01:18:48.789Z,51.27
2024-04-24T01:21:15.735Z,51.54
2024-04-24T01:24:06.384Z,51.57
2024-04-24T01:26:48.534Z,51.13
2024-04-24T01:29:15.499Z,51.41
2024-04-24T01:31:42.284Z,51.17
2024-04-24T01:34:09.090Z,51.20
2024-04-24T01:36:36.205Z,51.08
2024-04-24T01:39:05.759Z,51.18
2024-04-24T01:41:32.737Z,51.07
2024-04-24T01:43:59.490Z,51.30
2024-04-24T01:46:26.137Z,51.10
2024-04-24T01:48:53.242Z,51.37
2024-04-24T01:51:19.981Z,51.35
2024-04-24T01:53:46.684Z,51.00
2024-04-24T01:56:13.724Z,51.01
2024-04-24T01:58:40.533Z,51.45
2024-04-24T02:01:07.265Z,51.43
2024-04-24T02:03:34.015Z,51.01
2024-04-24T02:06:01.232Z,50.95
2024-04-24T02:08:27.999Z,51.17
2024-04-24T02:10:54.739Z,51.35
2024-04-24T02:13:21.409Z,51.17
2024-04-24T02:15:48.115Z,51.26
2024-04-24T02:18:14.980Z,51.15
2024-04-24T02:20:41.726Z,51.35
2024-04-24T02:23:08.964Z,51.29
2024-04-24T02:25:35.816Z,51.15
2024-04-24T02:28:03.736Z,51.27
2024-04-24T02:30:30.822Z,51.30
2024-04-24T02:32:57.658Z,51.27
2024-04-24T02:35:24.399Z,51.13
2024-04-24T02:37:51.262Z,51.04
2024-04-24T02:40:17.934Z,51.30
2024-04-24T02:42:44.650Z,51.50
2024-04-24T02:45:11.344Z,51.60
2024-04-24T02:47:38.199Z,51.47
2024-04-24T02:50:05.095Z,51.56
2024-04-24T02:52:31.879Z,51.56
2024-04-24T02:54:58.547Z,51.90
2024-04-24T02:57:25.236Z,51.71
2024-04-24T02:59:51.937Z,52.01
2024-04-24T03:02:18.767Z,52.09
2024-04-24T03:04:45.596Z,51.99
2024-04-24T03:07:12.265Z,52.05
2024-04-24T03:09:39.121Z,51.97
2024-04-24T03:12:05.930Z,52.29
2024-04-24T03:14:32.849Z,52.05
2024-04-24T03:16:59.656Z,52.35
2024-04-24T03:19:26.378Z,52.39
2024-04-24T03:21:53.068Z,52.68
2024-04-24T03:24:19.750Z,52.28
2024-04-24T03:26:46.412Z,52.53
2024-04-24T03:29:13.115Z,52.51
2024-04-24T03:31:39.837Z,52.41
2024-04-24T03:34:06.977Z,52.80
2024-04-24T03:36:33.695Z,52.58
2024-04-24T03:39:00.540Z,52.87
2024-04-24T03:41:27.358Z,52.88
2024-04-24T03:43:54.126Z,52.98
2024-04-24T03:46:20.847Z,53.09
2024-04-24T03:48:47.600Z,53.00
2024-04-24T03:51:14.307Z,53.23
2024-04-24T03:53:40.969Z,53.16
2024-04-24T03:56:08.321Z,53.28
2024-04-24T03:58:35.189Z,53.11
2024-04-24T04:01:02.014Z,53.27
2024-04-24T04:03:28.722Z,53.21
2024-04-24T04:05:55.390Z,53.58
2024-04-24T04:08:24.249Z,53.72
2024-04-24T04:10:51.169Z,53.67
2024-04-24T04:13:17.918Z,53.64
2024-04-24T04:15:44.630Z,53.77
2024-04-24T04:18:11.352Z,54.16
2024-04-24T04:20:38.073Z,53.85
2024-04-24T04:23:04.890Z,53.95
2024-04-24T04:25:31.588Z,53.70
2024-04-24T04:27:58.890Z,54.02
2024-04-24T04:30:25.688Z,53.88
2024-04-24T04:32:52.403Z,54.11
2024-04-24T04:35:19.413Z,53.95
2024-04-24T04:37:46.122Z,54.34
2024-04-24T04:40:12.844Z,54.78
2024-04-24T04:42:39.719Z,54.88
2024-04-24T04:45:07.363Z,54.94
2024-04-24T04:47:34.239Z,55.07
2024-04-24T04:50:01.052Z,54.92
2024-04-24T04:52:27.914Z,55.08
2024-04-24T04:54:54.557Z,55.20
2024-04-24T04:57:21.228Z,55.15
2024-04-24T04:59:48.160Z,54.88
2024-04-24T05:02:14.910Z,54.95
2024-04-24T05:04:41.723Z,54.74
2024-04-24T05:07:08.464Z,54.28
2024-04-24T05:09:36.780Z,54.34
2024-04-24T05:12:03.823Z,53.91
2024-04-24T05:14:30.724Z,54.05
2024-04-24T05:16:57.488Z,53.86
2024-04-24T05:19:24.357Z,53.70
2024-04-24T05:21:51.023Z,53.67
2024-04-24T05:24:17.763Z,53.61
2024-04-24T05:27:03.238Z,53.65
2024-04-24T05:29:29.940Z,53.62
2024-04-24T05:31:56.736Z,53.62
2024-04-24T05:34:24.706Z,53.45
2024-04-24T05:36:51.695Z,53.80
2024-04-24T05:39:18.418Z,53.45
2024-04-24T05:41:45.080Z,53.56
2024-04-24T05:44:11.933Z,53.19
2024-04-24T05:46:38.802Z,53.18
2024-04-24T05:49:05.435Z,53.34
2024-04-24T05:51:32.179Z,53.26
2024-04-24T05:53:58.929Z,53.25
2024-04-24T05:56:25.692Z,52.91
2024-04-24T05:58:52.424Z,52.73
2024-04-24T06:01:19.222Z,52.89
2024-04-24T06:03:45.969Z,52.52
2024-04-24T06:06:12.647Z,52.85
2024-04-24T06:08:39.332Z,52.61
2024-04-24T06:11:06.220Z,52.52
2024-04-24T06:13:33.087Z,52.58
2024-04-24T06:15:59.748Z,52.46
2024-04-24T06:18:26.455Z,52.18
2024-04-24T06:20:53.172Z,52.22
2024-04-24T06:23:19.974Z,52.39
2024-04-24T06:25:47.395Z,52.35
2024-04-24T06:28:14.141Z,52.26
2024-04-24T06:30:42.947Z,51.94
2024-04-24T06:33:09.808Z,51.78
2024-04-24T06:35:36.633Z,51.95
2024-04-24T06:38:03.702Z,51.39
2024-04-24T06:40:30.471Z,51.41
2024-04-24T06:42:57.218Z,51.17
2024-04-24T06:45:23.887Z,50.97
2024-04-24T06:47:50.673Z,50.76
2024-04-24T06:50:17.449Z,50.56
2024-04-24T06:52:44.151Z,50.35
2024-04-24T06:55:11.503Z,50.13
2024-04-24T06:57:38.151Z,49.74
2024-04-24T07:00:05.434Z,50.04
2024-04-24T07:02:32.133Z,49.70
2024-04-24T07:04:58.842Z,49.67
2024-04-24T07:07:25.536Z,49.52
2024-04-24T07:09:52.217Z,49.52
2024-04-24T07:12:19.227Z,49.34
2024-04-24T07:14:45.892Z,49.10
2024-04-24T07:17:13.666Z,49.18
2024-04-24T07:19:40.450Z,48.85
2024-04-24T07:22:07.777Z,48.95
2024-04-24T07:24:35.233Z,48.77
2024-04-24T07:27:01.959Z,48.72
2024-04-24T07:29:28.745Z,48.90
2024-04-24T07:31:55.491Z,48.72
2024-04-24T07:34:22.168Z,48.77
2024-04-24T07:36:48.865Z,48.63
2024-04-24T07:39:15.539Z,48.79
2024-04-24T07:41:43.590Z,48.52
2024-04-24T07:44:10.745Z,48.64
2024-04-24T07:46:37.869Z,48.52
2024-04-24T07:49:04.690Z,48.46
2024-04-24T07:51:31.461Z,48.63
2024-04-24T07:53:58.179Z,48.21
2024-04-24T07:56:25.071Z,48.31
2024-04-24T07:58:51.951Z,48.28
2024-04-24T08:01:22.657Z,48.42
2024-04-24T08:03:49.762Z,48.10
2024-04-24T08:06:16.599Z,47.88
2024-04-24T08:08:43.436Z,48.00
2024-04-24T08:11:10.258Z,47.71
2024-04-24T08:13:37.039Z,47.63
2024-04-24T08:16:03.915Z,47.42
2024-04-24T08:18:30.644Z,47.62
2024-04-24T08:20:57.825Z,47.22
2024-04-24T08:23:26.907Z,47.41
2024-04-24T08:25:55.013Z,46.98
2024-04-24T08:28:32.603Z,46.55
2024-04-24T08:31:05.594Z,46.92
2024-04-24T08:33:36.170Z,46.63
2024-04-24T08:36:05.151Z,46.77
2024-04-24T08:38:32.504Z,46.73
2024-04-24T08:41:07.021Z,46.40
2024-04-24T08:43:45.802Z,46.43
2024-04-24T08:46:13.250Z,46.25
2024-04-24T08:48:41.555Z,46.34
2024-04-24T08:51:12.551Z,46.25
2024-04-24T08:53:55.461Z,46.09
2024-04-24T08:56:23.731Z,45.89
2024-04-24T08:58:53.022Z,46.02
2024-04-24T09:01:22.209Z,45.81
2024-04-24T09:03:51.764Z,45.69
2024-04-24T09:06:19.267Z,45.73
2024-04-24T09:08:46.130Z,45.69
2024-04-24T09:11:13.099Z,45.82
2024-04-24T09:13:40.103Z,45.49
2024-04-24T09:16:08.655Z,45.76
2024-04-24T09:18:35.516Z,45.58
2024-04-24T09:21:03.607Z,45.47
2024-04-24T09:23:30.331Z,45.61
2024-04-24T09:25:58.889Z,45.58
2024-04-24T09:28:26.000Z,45.57
2024-04-24T09:30:53.974Z,45.80
2024-04-24T09:33:20.827Z,45.66
2024-04-24T09:35:47.899Z,45.98
2024-04-24T09:38:14.671Z,46.09
2024-04-24T09:40:41.597Z,45.90
2024-04-24T09:43:10.884Z,45.93
2024-04-24T09:45:37.617Z,46.00
2024-04-24T09:48:05.329Z,45.88
2024-04-24T09:50:39.439Z,45.53
2024-04-24T09:53:06.262Z,45.50
2024-04-24T09:55:38.499Z,45.36
2024-04-24T09:58:08.406Z,45.33
2024-04-24T10:00:36.599Z,45.45
2024-04-24T10:03:04.291Z,45.21
2024-04-24T10:05:36.029Z,45.08
2024-04-24T10:08:12.433Z,45.07
2024-04-24T10:10:41.191Z,44.97
2024-04-24T10:13:09.050Z,44.67
2024-04-24T10:15:44.643Z,44.76
2024-04-24T10:18:11.851Z,44.67
2024-04-24T10:20:42.539Z,44.51
2024-04-24T10:23:09.361Z,44.54
2024-04-24T10:25:36.558Z,44.45
2024-04-24T10:28:06.883Z,44.47
2024-04-24T10:30:37.210Z,44.22
2024-04-24T10:33:06.078Z,44.19
2024-04-24T10:35:33.194Z,44.06
2024-04-24T10:38:06.963Z,44.06
2024-04-24T10:40:34.463Z,43.83
2024-04-24T10:43:06.040Z,43.74
2024-04-24T10:45:42.160Z,43.55
2024-04-24T10:48:11.312Z,43.50
2024-04-24T10:50:39.606Z,43.29
2024-04-24T10:53:06.897Z,43.36
2024-04-24T10:55:33.768Z,43.44
2024-04-24T10:58:00.467Z,43.31
2024-04-24T11:00:31.173Z,43.10
2024-04-24T11:03:01.865Z,43.19
2024-04-24T11:05:32.803Z,43.33
2024-04-24T11:08:01.328Z,42.98
2024-04-24T11:10:29.440Z,43.24
2024-04-24T11:12:56.391Z,43.04
2024-04-24T11:15:27.622Z,42.73
2024-04-24T11:17:54.631Z,42.53
2024-04-24T11:20:22.836Z,42.56
2024-04-24T11:22:49.606Z,42.36
2024-04-24T11:25:19.019Z,42.37
2024-04-24T11:27:46.268Z,42.39
2024-04-24T11:30:14.911Z,42.15
2024-04-24T11:32:48.212Z,42.42
2024-04-24T11:35:16.200Z,42.20
2024-04-24T11:37:43.386Z,42.30
2024-04-24T11:40:11.216Z,42.15
2024-04-24T11:42:44.361Z,41.99
2024-04-24T11:45:12.235Z,42.21
2024-04-24T11:47:39.506Z,42.45
2024-04-24T11:50:07.917Z,42.26
2024-04-24T11:52:52.891Z,42.49
2024-04-24T11:55:20.757Z,42.57
2024-04-24T11:57:48.491Z,42.66
2024-04-24T12:00:15.866Z,42.50
2024-04-24T12:02:43.038Z,42.40
2024-04-24T12:05:10.186Z,42.54
2024-04-24T12:07:43.988Z,42.97
2024-04-24T12:10:12.362Z,43.16
2024-04-24T12:12:39.666Z,43.47
2024-04-24T12:15:07.063Z,43.71
2024-04-24T12:17:34.250Z,44.30
2024-04-24T12:20:02.818Z,44.41
2024-04-24T12:22:31.186Z,44.70
2024-04-24T12:24:58.158Z,44.91
2024-04-24T12:27:25.298Z,45.32
2024-04-24T12:29:52.489Z,45.45
2024-04-24T12:32:19.850Z,45.57
2024-04-24T12:34:47.038Z,45.75
2024-04-24T12:37:14.222Z,45.93
2024-04-24T12:39:41.426Z,46.00
2024-04-24T12:42:08.978Z,46.25
2024-04-24T12:44:36.067Z,46.32
2024-04-24T12:47:04.427Z,46.67
2024-04-24T12:49:31.622Z,46.83
2024-04-24T12:51:59.875Z,47.21
2024-04-24T12:54:27.055Z,47.32
2024-04-24T12:56:54.110Z,47.42
2024-04-24T12:59:21.285Z,47.57
2024-04-24T13:01:48.442Z,47.64
2024-04-24T13:04:18.015Z,47.93
2024-04-24T13:06:45.306Z,48.02
2024-04-24T13:09:12.506Z,48.16
2024-04-24T13:11:39.722Z,48.32
2024-04-24T13:14:11.438Z,48.37
2024-04-24T13:16:38.606Z,48.66
2024-04-24T13:19:05.806Z,48.74
2024-04-24T13:21:33.098Z,48.90
2024-04-24T13:24:00.071Z,48.96
2024-04-24T13:26:27.368Z,49.14
2024-04-24T13:28:54.408Z,49.41
2024-04-24T13:31:21.450Z,49.16
2024-04-24T13:33:48.533Z,49.13
2024-04-24T13:36:19.926Z,48.98
2024-04-24T13:38:49.222Z,48.73
2024-04-24T13:41:18.588Z,48.57
2024-04-24T13:43:46.739Z,48.47
2024-04-24T13:46:13.874Z,48.08
2024-04-24T13:48:42.064Z,47.93
2024-04-24T13:51:09.379Z,47.76
2024-04-24T13:53:36.697Z,47.42
2024-04-24T13:56:03.834Z,47.35
2024-04-24T13:58:30.974Z,47.18
2024-04-24T14:00:58.413Z,47.10
2024-04-24T14:03:25.553Z,46.87
2024-04-24T14:05:55.969Z,46.57
2024-04-24T14:08:23.830Z,46.68
2024-04-24T14:10:51.711Z,46.53
2024-04-24T14:13:18.863Z,46.61
2024-04-24T14:15:47.049Z,46.38
2024-04-24T14:18:14.055Z,46.45
2024-04-24T14:20:41.717Z,46.31
2024-04-24T14:23:08.982Z,46.37
2024-04-24T14:25:36.228Z,46.19
2024-04-24T14:28:03.540Z,46.20
2024-04-24T14:30:30.616Z,46.17
2024-04-24T14:32:57.865Z,46.22
2024-04-24T14:35:25.361Z,46.12
2024-04-24T14:37:52.708Z,46.06
2024-04-24T14:40:19.854Z,45.80
2024-04-24T14:42:49.594Z,45.84
2024-04-24T14:45:17.032Z,45.89
2024-04-24T14:47:44.667Z,45.61
2024-04-24T14:50:12.303Z,45.56
2024-04-24T14:52:39.518Z,45.27
2024-04-24T14:55:07.428Z,45.07
2024-04-24T14:57:34.761Z,44.88
2024-04-24T15:00:01.762Z,44.55
2024-04-24T15:02:29.029Z,44.64
2024-04-24T15:04:56.213Z,44.41
2024-04-24T15:07:23.299Z,44.26
2024-04-24T15:09:50.419Z,44.23
2024-04-24T15:12:17.635Z,44.25
2024-04-24T15:14:45.081Z,44.17
2024-04-24T15:17:12.240Z,44.20
2024-04-24T15:19:42.056Z,43.92
2024-04-24T15:22:09.500Z,44.20
2024-04-24T15:24:36.711Z,44.12
2024-04-24T15:27:03.877Z,44.06
2024-04-24T15:29:31.044Z,44.01
2024-04-24T15:31:58.350Z,44.01
2024-04-24T15:34:25.985Z,43.87
2024-04-24T15:36:53.558Z,43.68
2024-04-24T15:39:20.869Z,43.90
2024-04-24T15:41:49.731Z,43.90
2024-04-24T15:44:17.308Z,43.60
2024-04-24T15:46:45.169Z,43.45
2024-04-24T15:49:12.604Z,43.54
2024-04-24T15:51:42.005Z,43.38
2024-04-24T15:54:10.204Z,43.28
2024-04-24T15:56:39.080Z,43.49
2024-04-24T15:59:06.632Z,43.39
2024-04-24T16:01:34.291Z,43.32
2024-04-24T16:04:01.967Z,43.21
2024-04-24T16:06:30.368Z,43.38
2024-04-24T16:08:58.301Z,43.07
2024-04-24T16:11:26.697Z,43.08
2024-04-24T16:13:54.389Z,43.00
2024-04-24T16:16:22.126Z,43.16
2024-04-24T16:18:51.576Z,43.06
2024-04-24T16:21:20.641Z,43.02
2024-04-24T16:23:48.713Z,42.84
2024-04-24T16:26:16.769Z,42.82
2024-04-24T16:28:45.050Z,43.01
2024-04-24T16:31:13.968Z,42.96
2024-04-24T16:33:43.949Z,43.12
2024-04-24T16:36:14.197Z,42.85
2024-04-24T16:38:42.217Z,43.03
2024-04-24T16:41:16.850Z,42.66
2024-04-24T16:43:50.252Z,42.82
2024-04-24T16:46:20.747Z,42.63
2024-04-24T16:48:49.005Z,42.90
2024-04-24T16:51:17.207Z,42.75
2024-04-24T16:53:48.975Z,42.59
2024-04-24T16:56:19.804Z,42.69
2024-04-24T16:58:48.162Z,42.46
2024-04-24T17:01:17.937Z,42.35
2024-04-24T17:03:46.238Z,42.45
2024-04-24T17:06:14.231Z,42.31
2024-04-24T17:08:42.137Z,42.31
2024-04-24T17:11:10.220Z,42.15
2024-04-24T17:13:38.387Z,42.12
2024-04-24T17:16:06.676Z,42.14
2024-04-24T17:18:35.151Z,42.00
2024-04-24T17:21:04.683Z,42.13
2024-04-24T17:23:33.183Z,42.17
2024-04-24T17:26:03.070Z,42.25
2024-04-24T17:28:31.006Z,42.13
2024-04-24T17:30:59.339Z,42.33
2024-04-24T17:33:27.544Z,42.43
2024-04-24T17:35:58.993Z,42.33
2024-04-24T17:38:27.531Z,42.49
2024-04-24T17:40:56.191Z,42.52
2024-04-24T17:43:27.582Z,42.50
2024-04-24T17:45:56.458Z,42.46
2024-04-24T17:48:25.370Z,42.75
2024-04-24T17:50:53.702Z,42.84
2024-04-24T17:53:22.486Z,43.02
2024-04-24T17:55:52.848Z,43.25
2024-04-24T17:58:21.522Z,43.45
2024-04-24T18:00:50.868Z,43.53
2024-04-24T18:03:19.456Z,43.73
2024-04-24T18:05:49.071Z,43.84
2024-04-24T18:08:20.939Z,43.92
2024-04-24T18:10:50.408Z,44.11
2024-04-24T18:13:19.651Z,44.05
2024-04-24T18:15:49.139Z,44.26
2024-04-24T18:18:20.161Z,44.39
2024-04-24T18:20:48.856Z,44.58
2024-04-24T18:23:17.541Z,44.70
2024-04-24T18:25:46.039Z,44.88
2024-04-24T18:28:15.007Z,44.84
2024-04-24T18:30:43.576Z,44.84
2024-04-24T18:33:12.118Z,45.17
2024-04-24T18:35:40.930Z,45.07
2024-04-24T18:38:09.354Z,45.14
2024-04-24T18:40:37.872Z,45.37
2024-04-24T18:43:10.628Z,45.81
2024-04-24T18:45:39.347Z,46.07
2024-04-24T18:48:11.180Z,46.29
2024-04-24T18:50:40.854Z,46.82
2024-04-24T18:53:10.132Z,47.12
2024-04-24T18:55:38.903Z,47.09
2024-04-24T18:58:07.813Z,47.03
2024-04-24T19:00:37.730Z,47.46
2024-04-24T19:03:06.889Z,47.29
2024-04-24T19:05:35.765Z,47.63
2024-04-24T19:08:04.823Z,47.66
2024-04-24T19:10:33.728Z,47.69
2024-04-24T19:13:02.401Z,47.69
2024-04-24T19:15:32.441Z,47.87
2024-04-24T19:18:02.474Z,47.90
2024-04-24T19:20:34.046Z,47.93
2024-04-24T19:23:03.989Z,48.26
2024-04-24T19:25:33.967Z,48.35
2024-04-24T19:28:05.291Z,48.52
2024-04-24T19:30:34.250Z,48.40
2024-04-24T19:33:03.370Z,48.62
2024-04-24T19:35:32.914Z,48.35
2024-04-24T19:38:02.761Z,48.15
2024-04-24T19:40:34.210Z,47.96
2024-04-24T19:43:03.806Z,47.71
2024-04-24T19:45:35.835Z,47.77
2024-04-24T19:48:05.646Z,47.89
2024-04-24T19:50:35.286Z,47.86
2024-04-24T19:53:04.639Z,47.76
2024-04-24T19:55:38.179Z,47.59
2024-04-24T19:58:10.396Z,47.71
2024-04-24T20:00:39.719Z,47.52
2024-04-24T20:03:09.196Z,47.46
2024-04-24T20:05:38.486Z,47.66
2024-04-24T20:08:07.664Z,47.73
2024-04-24T20:10:36.998Z,47.77
2024-04-24T20:13:08.434Z,47.52
2024-04-24T20:15:39.598Z,47.48
2024-04-24T20:18:09.135Z,47.63
2024-04-24T20:20:38.597Z,47.50
2024-04-24T20:23:07.432Z,47.65
2024-04-24T20:25:36.662Z,47.50
2024-04-24T20:28:05.878Z,47.71
2024-04-24T20:30:35.972Z,47.83
2024-04-24T20:33:08.912Z,47.50
2024-04-24T20:35:38.478Z,47.67
2024-04-24T20:38:07.458Z,47.63
2024-04-24T20:40:37.184Z,47.60
2024-04-24T20:43:06.833Z,47.84
2024-04-24T20:45:36.013Z,47.88
2024-04-24T20:48:05.540Z,47.98
2024-04-24T20:50:34.766Z,47.65
2024-04-24T20:53:04.502Z,47.56
2024-04-24T20:55:34.118Z,47.86
2024-04-24T20:58:02.892Z,47.44
2024-04-24T21:00:32.204Z,47.59
2024-04-24T21:03:01.255Z,47.77
2024-04-24T21:05:30.020Z,47.65
2024-04-24T21:07:58.297Z,47.64
2024-04-24T21:10:26.814Z,47.66
2024-04-24T21:12:55.186Z,47.81
2024-04-24T21:15:23.325Z,47.30
2024-04-24T21:17:51.363Z,47.54
2024-04-24T21:20:20.995Z,47.80
2024-04-24T21:22:49.157Z,47.47
2024-04-24T21:25:17.168Z,47.69
2024-04-24T21:27:44.973Z,47.61
2024-04-24T21:30:13.326Z,47.92
2024-04-24T21:32:40.997Z,47.59
2024-04-24T21:35:09.350Z,47.67
2024-04-24T21:37:37.597Z,47.62
2024-04-24T21:40:05.547Z,47.61
2024-04-24T21:42:33.294Z,47.78
2024-04-24T21:45:00.703Z,47.77
2024-04-24T21:47:28.393Z,47.75
2024-04-24T21:49:56.192Z,47.88
2024-04-24T21:52:23.575Z,47.85
2024-04-24T21:54:51.069Z,48.16
2024-04-24T21:57:18.416Z,47.83
2024-04-24T21:59:45.845Z,48.07
2024-04-24T22:02:13.379Z,47.84
2024-04-24T22:04:41.213Z,47.96
2024-04-24T22:07:08.347Z,47.84
2024-04-24T22:09:35.658Z,48.25
2024-04-24T22:12:03.042Z,48.21
2024-04-24T22:14:30.268Z,47.92
2024-04-24T22:16:57.839Z,47.72
2024-04-24T22:19:25.175Z,47.95
2024-04-24T22:21:52.259Z,48.22
2024-04-24T22:24:20.113Z,47.86
2024-04-24T22:26:47.437Z,48.13
2024-04-24T22:29:14.647Z,48.20
2024-04-24T22:34:08.810Z,48.19
2024-04-24T22:36:35.872Z,48.20
2024-04-24T22:39:02.937Z,48.27
2024-04-24T22:41:29.915Z,47.92
2024-04-24T22:43:57.024Z,48.38
2024-04-24T22:46:23.945Z,48.06
2024-04-24T22:48:50.902Z,48.51
2024-04-24T22:51:17.872Z,48.39
2024-04-24T22:53:45.000Z,48.03
2024-04-24T22:56:13.219Z,48.42
2024-04-24T22:58:40.677Z,48.46
2024-04-24T23:01:07.720Z,48.35
2024-04-24T23:03:34.675Z,48.74
2024-04-24T23:06:01.560Z,48.54
2024-04-24T23:08:28.483Z,48.73
2024-04-24T23:10:55.183Z,48.56
2024-04-24T23:13:21.888Z,48.55
2024-04-24T23:15:48.608Z,48.80
2024-04-24T23:18:15.382Z,48.59
2024-04-24T23:20:42.394Z,48.71
2024-04-24T23:23:09.456Z,48.60
2024-04-24T23:25:36.179Z,48.77
2024-04-24T23:28:02.960Z,48.52
2024-04-24T23:30:29.741Z,48.93
2024-04-24T23:32:58.840Z,48.45
2024-04-24T23:35:25.768Z,48.51
2024-04-24T23:37:52.513Z,48.56
2024-04-24T23:40:19.238Z,48.91
2024-04-24T23:42:45.954Z,49.14
2024-04-24T23:45:12.795Z,49.06
2024-04-24T23:47:39.674Z,49.00
2024-04-24T23:50:06.623Z,49.27
2024-04-24T23:52:33.409Z,48.88
2024-04-24T23:55:00.148Z,49.10
2024-04-24T23:57:26.870Z,49.21
2024-04-24T23:59:53.705Z,49.13
